sensor_id;sensor_type;location;lat;lon;timestamp;temperature;humidity
11617;DHT22;5864;52.998;9.068;2022-12-07T00:01:08;4.50;99.90
11617;DHT22;5864;52.998;9.068;2022-12-07T00:03:56;4.50;99.90
11617;DHT22;5864;52.998;9.068;2022-12-07T00:06:51;4.50;99.90
11617;DHT22;5864;52.998;9.068;2022-12-07T00:09:37;4.60;99.90
11617;DHT22;5864;52.998;9.068;2022-12-07T00:12:26;4.60;99.90
11617;DHT22;5864;52.998;9.068;2022-12-07T00:15:13;4.60;99.90
11617;DHT22;5864;52.998;9.068;2022-12-07T00:17:59;4.50;99.90
11617;DHT22;5864;52.998;9.068;2022-12-07T00:20:44;4.50;99.90
11617;DHT22;5864;52.998;9.068;2022-12-07T00:23:30;3.70;99.90
11617;DHT22;5864;52.998;9.068;2022-12-07T00:26:18;4.40;99.90
11617;DHT22;5864;52.998;9.068;2022-12-07T00:29:06;4.40;99.90
11617;DHT22;5864;52.998;9.068;2022-12-07T00:31:56;4.30;99.90
11617;DHT22;5864;52.998;9.068;2022-12-07T00:34:43;4.30;99.90
11617;DHT22;5864;52.998;9.068;2022-12-07T00:37:31;4.30;99.90
11617;DHT22;5864;52.998;9.068;2022-12-07T00:40:19;4.20;99.90
11617;DHT22;5864;52.998;9.068;2022-12-07T00:43:07;4.10;99.90
11617;DHT22;5864;52.998;9.068;2022-12-07T00:45:55;4.10;99.90
11617;DHT22;5864;52.998;9.068;2022-12-07T00:48:44;4.10;99.90
11617;DHT22;5864;52.998;9.068;2022-12-07T00:51:32;4.00;99.90
11617;DHT22;5864;52.998;9.068;2022-12-07T00:54:20;3.90;99.90
11617;DHT22;5864;52.998;9.068;2022-12-07T00:57:08;3.90;99.90
11617;DHT22;5864;52.998;9.068;2022-12-07T00:59:55;3.90;99.90
11617;DHT22;5864;52.998;9.068;2022-12-07T01:02:44;3.90;99.90
11617;DHT22;5864;52.998;9.068;2022-12-07T01:05:33;3.90;99.90
11617;DHT22;5864;52.998;9.068;2022-12-07T01:08:21;3.90;99.90
11617;DHT22;5864;52.998;9.068;2022-12-07T01:11:12;3.90;99.90
11617;DHT22;5864;52.998;9.068;2022-12-07T01:14:00;3.90;99.90
11617;DHT22;5864;52.998;9.068;2022-12-07T01:16:48;3.90;99.90
11617;DHT22;5864;52.998;9.068;2022-12-07T01:19:36;3.90;99.90
11617;DHT22;5864;52.998;9.068;2022-12-07T01:22:25;3.80;99.90
11617;DHT22;5864;52.998;9.068;2022-12-07T01:25:13;3.80;99.90
11617;DHT22;5864;52.998;9.068;2022-12-07T01:28:01;3.70;99.90
11617;DHT22;5864;52.998;9.068;2022-12-07T01:30:56;3.70;99.90
11617;DHT22;5864;52.998;9.068;2022-12-07T01:33:45;3.70;99.90
11617;DHT22;5864;52.998;9.068;2022-12-07T01:36:35;3.70;99.90
11617;DHT22;5864;52.998;9.068;2022-12-07T01:39:25;3.70;99.90
11617;DHT22;5864;52.998;9.068;2022-12-07T01:42:13;3.70;99.90
11617;DHT22;5864;52.998;9.068;2022-12-07T01:48:33;3.70;99.90
11617;DHT22;5864;52.998;9.068;2022-12-07T01:51:22;3.70;99.90
11617;DHT22;5864;52.998;9.068;2022-12-07T01:54:11;3.70;99.90
11617;DHT22;5864;52.998;9.068;2022-12-07T01:57:01;3.60;99.90
11617;DHT22;5864;52.998;9.068;2022-12-07T01:59:51;3.60;99.90
11617;DHT22;5864;52.998;9.068;2022-12-07T02:02:43;3.50;99.90
11617;DHT22;5864;52.998;9.068;2022-12-07T02:05:32;3.50;99.90
11617;DHT22;5864;52.998;9.068;2022-12-07T02:08:21;3.50;99.90
11617;DHT22;5864;52.998;9.068;2022-12-07T02:11:09;3.50;99.90
11617;DHT22;5864;52.998;9.068;2022-12-07T02:13:59;3.50;99.90
11617;DHT22;5864;52.998;9.068;2022-12-07T02:16:54;3.50;99.90
11617;DHT22;5864;52.998;9.068;2022-12-07T02:20:25;3.50;99.90
11617;DHT22;5864;52.998;9.068;2022-12-07T02:23:40;3.50;99.90
11617;DHT22;5864;52.998;9.068;2022-12-07T02:30:17;3.40;99.90
11617;DHT22;5864;52.998;9.068;2022-12-07T02:33:11;3.40;99.90
11617;DHT22;5864;52.998;9.068;2022-12-07T02:36:05;3.30;99.90
11617;DHT22;5864;52.998;9.068;2022-12-07T02:38:58;3.30;99.90
11617;DHT22;5864;52.998;9.068;2022-12-07T02:41:51;3.30;99.90
11617;DHT22;5864;52.998;9.068;2022-12-07T02:44:40;3.20;99.90
11617;DHT22;5864;52.998;9.068;2022-12-07T02:47:32;3.30;99.90
11617;DHT22;5864;52.998;9.068;2022-12-07T02:50:21;3.30;99.90
11617;DHT22;5864;52.998;9.068;2022-12-07T02:53:33;3.20;99.90
11617;DHT22;5864;52.998;9.068;2022-12-07T02:56:26;3.20;99.90
11617;DHT22;5864;52.998;9.068;2022-12-07T02:59:26;3.20;99.90
11617;DHT22;5864;52.998;9.068;2022-12-07T03:02:24;3.20;99.90
11617;DHT22;5864;52.998;9.068;2022-12-07T03:05:28;4.00;99.90
11617;DHT22;5864;52.998;9.068;2022-12-07T03:08:24;3.10;99.90
11617;DHT22;5864;52.998;9.068;2022-12-07T03:11:19;3.20;99.90
11617;DHT22;5864;52.998;9.068;2022-12-07T03:14:13;3.20;99.90
11617;DHT22;5864;52.998;9.068;2022-12-07T03:17:07;3.10;99.90
11617;DHT22;5864;52.998;9.068;2022-12-07T03:19:59;3.10;99.90
11617;DHT22;5864;52.998;9.068;2022-12-07T03:22:51;3.20;99.90
11617;DHT22;5864;52.998;9.068;2022-12-07T03:25:42;3.20;99.90
11617;DHT22;5864;52.998;9.068;2022-12-07T03:28:35;3.30;99.90
11617;DHT22;5864;52.998;9.068;2022-12-07T03:31:28;3.30;99.90
11617;DHT22;5864;52.998;9.068;2022-12-07T03:34:21;3.40;99.90
11617;DHT22;5864;52.998;9.068;2022-12-07T03:37:17;3.40;99.90
11617;DHT22;5864;52.998;9.068;2022-12-07T03:40:13;3.20;99.90
11617;DHT22;5864;52.998;9.068;2022-12-07T03:43:03;3.40;99.90
11617;DHT22;5864;52.998;9.068;2022-12-07T03:46:03;3.50;99.90
11617;DHT22;5864;52.998;9.068;2022-12-07T03:48:59;3.50;99.90
11617;DHT22;5864;52.998;9.068;2022-12-07T03:51:54;3.50;99.90
11617;DHT22;5864;52.998;9.068;2022-12-07T03:54:47;3.50;99.90
11617;DHT22;5864;52.998;9.068;2022-12-07T03:57:39;3.50;99.90
11617;DHT22;5864;52.998;9.068;2022-12-07T04:00:29;3.50;99.90
11617;DHT22;5864;52.998;9.068;2022-12-07T04:03:16;3.60;99.90
11617;DHT22;5864;52.998;9.068;2022-12-07T04:06:05;3.60;99.90
11617;DHT22;5864;52.998;9.068;2022-12-07T04:08:53;3.70;99.90
11617;DHT22;5864;52.998;9.068;2022-12-07T04:11:40;3.70;99.90
11617;DHT22;5864;52.998;9.068;2022-12-07T04:14:30;3.70;99.90
11617;DHT22;5864;52.998;9.068;2022-12-07T04:17:17;3.70;99.90
11617;DHT22;5864;52.998;9.068;2022-12-07T04:20:07;3.80;99.90
11617;DHT22;5864;52.998;9.068;2022-12-07T04:22:55;3.80;99.90
11617;DHT22;5864;52.998;9.068;2022-12-07T04:25:43;3.80;99.90
11617;DHT22;5864;52.998;9.068;2022-12-07T04:28:30;3.80;99.90
11617;DHT22;5864;52.998;9.068;2022-12-07T04:31:20;3.80;99.90
11617;DHT22;5864;52.998;9.068;2022-12-07T04:34:08;3.80;99.90
11617;DHT22;5864;52.998;9.068;2022-12-07T04:36:55;3.80;99.90
11617;DHT22;5864;52.998;9.068;2022-12-07T04:39:43;3.80;99.90
11617;DHT22;5864;52.998;9.068;2022-12-07T04:42:32;3.80;99.90
11617;DHT22;5864;52.998;9.068;2022-12-07T04:45:19;3.40;99.90
11617;DHT22;5864;52.998;9.068;2022-12-07T04:48:08;3.70;99.90
11617;DHT22;5864;52.998;9.068;2022-12-07T04:50:56;3.70;99.90
11617;DHT22;5864;52.998;9.068;2022-12-07T04:53:44;3.70;99.90
11617;DHT22;5864;52.998;9.068;2022-12-07T04:56:32;3.70;99.90
11617;DHT22;5864;52.998;9.068;2022-12-07T04:59:21;3.70;99.90
11617;DHT22;5864;52.998;9.068;2022-12-07T05:02:09;3.70;99.90
11617;DHT22;5864;52.998;9.068;2022-12-07T05:04:58;3.60;99.90
11617;DHT22;5864;52.998;9.068;2022-12-07T05:07:46;3.70;99.90
11617;DHT22;5864;52.998;9.068;2022-12-07T05:10:33;3.70;99.90
11617;DHT22;5864;52.998;9.068;2022-12-07T05:13:21;3.70;99.90
11617;DHT22;5864;52.998;9.068;2022-12-07T05:16:09;3.70;99.90
11617;DHT22;5864;52.998;9.068;2022-12-07T05:18:57;3.70;99.90
11617;DHT22;5864;52.998;9.068;2022-12-07T05:21:46;3.70;99.90
11617;DHT22;5864;52.998;9.068;2022-12-07T05:24:34;3.70;99.90
11617;DHT22;5864;52.998;9.068;2022-12-07T05:27:22;3.70;99.90
11617;DHT22;5864;52.998;9.068;2022-12-07T05:30:11;3.70;99.90
11617;DHT22;5864;52.998;9.068;2022-12-07T05:32:59;3.70;99.90
11617;DHT22;5864;52.998;9.068;2022-12-07T05:35:46;3.60;99.90
11617;DHT22;5864;52.998;9.068;2022-12-07T05:38:35;3.60;99.90
11617;DHT22;5864;52.998;9.068;2022-12-07T05:41:23;3.60;99.90
11617;DHT22;5864;52.998;9.068;2022-12-07T05:44:29;3.70;99.90
11617;DHT22;5864;52.998;9.068;2022-12-07T05:47:16;3.60;99.90
11617;DHT22;5864;52.998;9.068;2022-12-07T05:50:05;2.90;99.90
11617;DHT22;5864;52.998;9.068;2022-12-07T05:52:53;3.50;99.90
11617;DHT22;5864;52.998;9.068;2022-12-07T05:55:43;3.40;99.90
11617;DHT22;5864;52.998;9.068;2022-12-07T05:58:30;3.40;99.90
11617;DHT22;5864;52.998;9.068;2022-12-07T06:01:36;3.40;99.90
11617;DHT22;5864;52.998;9.068;2022-12-07T06:04:24;3.40;99.90
11617;DHT22;5864;52.998;9.068;2022-12-07T06:07:14;3.40;99.90
11617;DHT22;5864;52.998;9.068;2022-12-07T06:10:03;3.40;99.90
11617;DHT22;5864;52.998;9.068;2022-12-07T06:12:52;3.40;99.90
11617;DHT22;5864;52.998;9.068;2022-12-07T06:15:38;3.40;99.90
11617;DHT22;5864;52.998;9.068;2022-12-07T06:18:26;3.40;99.90
11617;DHT22;5864;52.998;9.068;2022-12-07T06:21:14;3.50;99.90
11617;DHT22;5864;52.998;9.068;2022-12-07T06:24:02;3.50;99.90
11617;DHT22;5864;52.998;9.068;2022-12-07T06:26:50;3.50;99.90
11617;DHT22;5864;52.998;9.068;2022-12-07T06:29:39;3.50;99.90
11617;DHT22;5864;52.998;9.068;2022-12-07T06:32:27;3.50;99.90
11617;DHT22;5864;52.998;9.068;2022-12-07T06:35:15;3.50;99.90
11617;DHT22;5864;52.998;9.068;2022-12-07T06:38:02;3.60;99.90
11617;DHT22;5864;52.998;9.068;2022-12-07T06:40:30;3.60;99.90
11617;DHT22;5864;52.998;9.068;2022-12-07T06:42:57;3.50;99.90
11617;DHT22;5864;52.998;9.068;2022-12-07T06:45:26;3.50;99.90
11617;DHT22;5864;52.998;9.068;2022-12-07T06:47:53;3.50;99.90
11617;DHT22;5864;52.998;9.068;2022-12-07T06:50:21;3.50;99.90
11617;DHT22;5864;52.998;9.068;2022-12-07T06:52:48;3.60;99.90
11617;DHT22;5864;52.998;9.068;2022-12-07T06:55:16;3.60;99.90
11617;DHT22;5864;52.998;9.068;2022-12-07T06:57:43;3.60;99.90
11617;DHT22;5864;52.998;9.068;2022-12-07T07:00:12;3.60;99.90
11617;DHT22;5864;52.998;9.068;2022-12-07T07:02:41;3.60;99.90
11617;DHT22;5864;52.998;9.068;2022-12-07T07:05:09;3.60;99.90
11617;DHT22;5864;52.998;9.068;2022-12-07T07:07:36;3.60;99.90
11617;DHT22;5864;52.998;9.068;2022-12-07T07:10:05;3.50;99.90
11617;DHT22;5864;52.998;9.068;2022-12-07T07:12:32;3.50;99.90
11617;DHT22;5864;52.998;9.068;2022-12-07T07:15:00;3.50;99.90
11617;DHT22;5864;52.998;9.068;2022-12-07T07:17:27;3.50;99.90
11617;DHT22;5864;52.998;9.068;2022-12-07T07:19:56;3.50;99.90
11617;DHT22;5864;52.998;9.068;2022-12-07T07:22:23;3.40;99.90
11617;DHT22;5864;52.998;9.068;2022-12-07T07:24:51;3.40;99.90
11617;DHT22;5864;52.998;9.068;2022-12-07T07:27:18;3.40;99.90
11617;DHT22;5864;52.998;9.068;2022-12-07T07:29:46;3.40;99.90
11617;DHT22;5864;52.998;9.068;2022-12-07T07:32:13;3.30;99.90
11617;DHT22;5864;52.998;9.068;2022-12-07T07:34:41;3.40;99.90
11617;DHT22;5864;52.998;9.068;2022-12-07T07:37:10;3.30;99.90
11617;DHT22;5864;52.998;9.068;2022-12-07T07:39:38;3.30;99.90
11617;DHT22;5864;52.998;9.068;2022-12-07T07:42:06;3.30;99.90
11617;DHT22;5864;52.998;9.068;2022-12-07T07:44:34;3.30;99.90
11617;DHT22;5864;52.998;9.068;2022-12-07T07:47:01;3.40;99.90
11617;DHT22;5864;52.998;9.068;2022-12-07T07:49:29;3.40;99.90
11617;DHT22;5864;52.998;9.068;2022-12-07T07:51:56;3.40;99.90
11617;DHT22;5864;52.998;9.068;2022-12-07T07:54:25;3.40;99.90
11617;DHT22;5864;52.998;9.068;2022-12-07T07:56:53;3.40;99.90
11617;DHT22;5864;52.998;9.068;2022-12-07T07:59:20;3.40;99.90
11617;DHT22;5864;52.998;9.068;2022-12-07T08:01:48;3.40;99.90
11617;DHT22;5864;52.998;9.068;2022-12-07T08:04:15;3.40;99.90
11617;DHT22;5864;52.998;9.068;2022-12-07T08:06:42;3.50;99.90
11617;DHT22;5864;52.998;9.068;2022-12-07T08:09:10;3.50;99.90
11617;DHT22;5864;52.998;9.068;2022-12-07T08:11:39;3.50;99.90
11617;DHT22;5864;52.998;9.068;2022-12-07T08:14:06;3.60;99.90
11617;DHT22;5864;52.998;9.068;2022-12-07T08:16:33;3.60;99.90
11617;DHT22;5864;52.998;9.068;2022-12-07T08:19:01;3.70;99.90
11617;DHT22;5864;52.998;9.068;2022-12-07T08:21:28;3.80;99.90
11617;DHT22;5864;52.998;9.068;2022-12-07T08:23:57;4.10;99.90
11617;DHT22;5864;52.998;9.068;2022-12-07T08:26:25;4.40;99.90
11617;DHT22;5864;52.998;9.068;2022-12-07T08:28:54;4.60;99.90
11617;DHT22;5864;52.998;9.068;2022-12-07T08:31:21;4.70;99.90
11617;DHT22;5864;52.998;9.068;2022-12-07T08:33:49;4.70;99.90
11617;DHT22;5864;52.998;9.068;2022-12-07T08:36:17;4.60;99.90
11617;DHT22;5864;52.998;9.068;2022-12-07T08:38:45;4.40;99.90
11617;DHT22;5864;52.998;9.068;2022-12-07T08:41:13;4.40;99.90
11617;DHT22;5864;52.998;9.068;2022-12-07T08:43:40;4.50;99.90
11617;DHT22;5864;52.998;9.068;2022-12-07T08:46:18;4.60;99.90
11617;DHT22;5864;52.998;9.068;2022-12-07T08:48:48;4.50;99.90
11617;DHT22;5864;52.998;9.068;2022-12-07T08:51:17;4.50;99.90
11617;DHT22;5864;52.998;9.068;2022-12-07T08:53:45;4.50;99.90
11617;DHT22;5864;52.998;9.068;2022-12-07T08:56:13;4.60;99.90
11617;DHT22;5864;52.998;9.068;2022-12-07T08:58:41;4.50;99.90
11617;DHT22;5864;52.998;9.068;2022-12-07T09:01:08;5.80;99.90
11617;DHT22;5864;52.998;9.068;2022-12-07T09:03:37;4.50;99.90
11617;DHT22;5864;52.998;9.068;2022-12-07T09:06:05;4.50;99.90
11617;DHT22;5864;52.998;9.068;2022-12-07T09:08:34;4.50;99.90
11617;DHT22;5864;52.998;9.068;2022-12-07T09:11:03;4.50;99.90
11617;DHT22;5864;52.998;9.068;2022-12-07T09:13:31;4.60;99.90
11617;DHT22;5864;52.998;9.068;2022-12-07T09:15:58;4.60;99.90
11617;DHT22;5864;52.998;9.068;2022-12-07T09:18:26;4.70;99.90
11617;DHT22;5864;52.998;9.068;2022-12-07T09:20:56;4.70;99.90
11617;DHT22;5864;52.998;9.068;2022-12-07T09:23:23;4.80;99.90
11617;DHT22;5864;52.998;9.068;2022-12-07T09:25:51;4.60;99.90
11617;DHT22;5864;52.998;9.068;2022-12-07T09:28:18;4.60;99.90
11617;DHT22;5864;52.998;9.068;2022-12-07T09:30:46;4.50;99.90
11617;DHT22;5864;52.998;9.068;2022-12-07T09:33:14;4.40;99.90
11617;DHT22;5864;52.998;9.068;2022-12-07T09:35:44;4.40;99.90
11617;DHT22;5864;52.998;9.068;2022-12-07T09:38:13;4.50;99.90
11617;DHT22;5864;52.998;9.068;2022-12-07T09:40:41;4.50;99.90
11617;DHT22;5864;52.998;9.068;2022-12-07T09:43:13;4.60;99.90
11617;DHT22;5864;52.998;9.068;2022-12-07T09:45:42;4.70;99.90
11617;DHT22;5864;52.998;9.068;2022-12-07T09:48:17;4.70;99.90
11617;DHT22;5864;52.998;9.068;2022-12-07T09:50:46;4.60;99.90
11617;DHT22;5864;52.998;9.068;2022-12-07T09:53:22;4.60;99.90
11617;DHT22;5864;52.998;9.068;2022-12-07T09:55:50;4.60;99.90
11617;DHT22;5864;52.998;9.068;2022-12-07T09:58:21;4.80;99.90
11617;DHT22;5864;52.998;9.068;2022-12-07T10:00:50;4.80;99.90
11617;DHT22;5864;52.998;9.068;2022-12-07T10:03:20;5.00;99.90
11617;DHT22;5864;52.998;9.068;2022-12-07T10:05:50;5.20;99.90
11617;DHT22;5864;52.998;9.068;2022-12-07T10:08:19;5.30;99.90
11617;DHT22;5864;52.998;9.068;2022-12-07T10:10:51;5.40;99.90
11617;DHT22;5864;52.998;9.068;2022-12-07T10:13:20;5.40;99.90
11617;DHT22;5864;52.998;9.068;2022-12-07T10:15:51;5.40;99.90
11617;DHT22;5864;52.998;9.068;2022-12-07T10:18:28;5.40;99.90
11617;DHT22;5864;52.998;9.068;2022-12-07T10:21:10;5.30;99.90
11617;DHT22;5864;52.998;9.068;2022-12-07T10:23:41;5.20;99.90
11617;DHT22;5864;52.998;9.068;2022-12-07T10:26:28;5.20;99.90
11617;DHT22;5864;52.998;9.068;2022-12-07T10:28:58;5.20;99.90
11617;DHT22;5864;52.998;9.068;2022-12-07T10:31:26;5.40;99.90
11617;DHT22;5864;52.998;9.068;2022-12-07T10:33:54;5.50;99.90
11617;DHT22;5864;52.998;9.068;2022-12-07T10:36:25;5.70;99.90
11617;DHT22;5864;52.998;9.068;2022-12-07T10:39:03;5.80;99.90
11617;DHT22;5864;52.998;9.068;2022-12-07T10:41:31;5.80;99.90
11617;DHT22;5864;52.998;9.068;2022-12-07T10:43:58;5.60;99.90
11617;DHT22;5864;52.998;9.068;2022-12-07T10:53:06;5.50;99.90
11617;DHT22;5864;52.998;9.068;2022-12-07T10:56:04;5.30;99.90
11617;DHT22;5864;52.998;9.068;2022-12-07T10:58:45;5.30;99.90
11617;DHT22;5864;52.998;9.068;2022-12-07T11:01:24;5.40;99.90
11617;DHT22;5864;52.998;9.068;2022-12-07T11:04:18;5.40;99.90
11617;DHT22;5864;52.998;9.068;2022-12-07T11:06:54;5.40;99.90
11617;DHT22;5864;52.998;9.068;2022-12-07T11:12:24;5.40;99.90
11617;DHT22;5864;52.998;9.068;2022-12-07T11:14:56;5.30;99.90
11617;DHT22;5864;52.998;9.068;2022-12-07T11:17:31;5.30;99.90
11617;DHT22;5864;52.998;9.068;2022-12-07T11:20:11;5.40;99.90
11617;DHT22;5864;52.998;9.068;2022-12-07T11:22:45;5.40;99.90
11617;DHT22;5864;52.998;9.068;2022-12-07T11:25:20;5.40;99.90
11617;DHT22;5864;52.998;9.068;2022-12-07T11:28:02;5.40;99.90
11617;DHT22;5864;52.998;9.068;2022-12-07T11:30:35;5.40;99.90
11617;DHT22;5864;52.998;9.068;2022-12-07T11:33:11;5.50;99.90
11617;DHT22;5864;52.998;9.068;2022-12-07T11:35:54;5.60;99.90
11617;DHT22;5864;52.998;9.068;2022-12-07T11:38:33;5.90;99.90
11617;DHT22;5864;52.998;9.068;2022-12-07T11:41:06;5.80;99.90
11617;DHT22;5864;52.998;9.068;2022-12-07T11:43:52;5.90;99.90
11617;DHT22;5864;52.998;9.068;2022-12-07T11:46:24;5.80;99.90
11617;DHT22;5864;52.998;9.068;2022-12-07T11:48:58;5.80;99.90
11617;DHT22;5864;52.998;9.068;2022-12-07T11:51:30;5.60;99.90
11617;DHT22;5864;52.998;9.068;2022-12-07T11:54:02;5.60;99.90
11617;DHT22;5864;52.998;9.068;2022-12-07T11:56:30;5.50;99.90
11617;DHT22;5864;52.998;9.068;2022-12-07T11:59:09;5.40;99.90
11617;DHT22;5864;52.998;9.068;2022-12-07T12:01:48;5.40;99.90
11617;DHT22;5864;52.998;9.068;2022-12-07T12:04:27;5.50;99.90
11617;DHT22;5864;52.998;9.068;2022-12-07T12:06:57;5.60;99.90
11617;DHT22;5864;52.998;9.068;2022-12-07T12:09:29;5.80;99.90
11617;DHT22;5864;52.998;9.068;2022-12-07T12:15:28;5.90;99.90
11617;DHT22;5864;52.998;9.068;2022-12-07T12:20:57;5.90;99.90
11617;DHT22;5864;52.998;9.068;2022-12-07T12:23:33;5.90;99.90
11617;DHT22;5864;52.998;9.068;2022-12-07T12:26:05;5.80;99.90
11617;DHT22;5864;52.998;9.068;2022-12-07T12:28:39;5.90;99.90
11617;DHT22;5864;52.998;9.068;2022-12-07T12:31:12;5.90;99.90
11617;DHT22;5864;52.998;9.068;2022-12-07T12:33:43;5.90;99.90
11617;DHT22;5864;52.998;9.068;2022-12-07T12:36:25;6.00;99.90
11617;DHT22;5864;52.998;9.068;2022-12-07T12:39:11;6.00;99.90
11617;DHT22;5864;52.998;9.068;2022-12-07T12:41:57;6.00;99.90
11617;DHT22;5864;52.998;9.068;2022-12-07T12:47:59;5.90;99.90
11617;DHT22;5864;52.998;9.068;2022-12-07T12:50:29;5.90;99.90
11617;DHT22;5864;52.998;9.068;2022-12-07T12:53:15;5.90;99.90
11617;DHT22;5864;52.998;9.068;2022-12-07T12:56:13;6.00;99.90
11617;DHT22;5864;52.998;9.068;2022-12-07T12:58:45;6.00;99.90
11617;DHT22;5864;52.998;9.068;2022-12-07T13:01:44;6.00;99.90
11617;DHT22;5864;52.998;9.068;2022-12-07T13:04:37;5.80;99.90
11617;DHT22;5864;52.998;9.068;2022-12-07T13:07:11;5.80;99.90
11617;DHT22;5864;52.998;9.068;2022-12-07T13:09:42;5.70;99.90
11617;DHT22;5864;52.998;9.068;2022-12-07T13:12:15;5.50;99.90
11617;DHT22;5864;52.998;9.068;2022-12-07T13:14:56;5.10;99.90
11617;DHT22;5864;52.998;9.068;2022-12-07T13:17:56;5.00;99.90
11617;DHT22;5864;52.998;9.068;2022-12-07T13:20:56;4.40;99.90
11617;DHT22;5864;52.998;9.068;2022-12-07T13:23:28;4.20;99.90
11617;DHT22;5864;52.998;9.068;2022-12-07T13:26:14;4.20;99.90
11617;DHT22;5864;52.998;9.068;2022-12-07T13:28:44;4.10;99.90
11617;DHT22;5864;52.998;9.068;2022-12-07T13:31:30;4.20;99.90
11617;DHT22;5864;52.998;9.068;2022-12-07T13:33:58;4.30;99.90
11617;DHT22;5864;52.998;9.068;2022-12-07T13:36:30;4.40;99.90
11617;DHT22;5864;52.998;9.068;2022-12-07T13:39:17;4.50;99.90
11617;DHT22;5864;52.998;9.068;2022-12-07T13:41:49;4.50;99.90
11617;DHT22;5864;52.998;9.068;2022-12-07T13:44:20;4.50;99.90
11617;DHT22;5864;52.998;9.068;2022-12-07T13:46:57;4.60;99.90
11617;DHT22;5864;52.998;9.068;2022-12-07T13:49:28;4.70;99.90
11617;DHT22;5864;52.998;9.068;2022-12-07T13:52:15;4.70;99.90
11617;DHT22;5864;52.998;9.068;2022-12-07T13:54:47;4.60;99.90
11617;DHT22;5864;52.998;9.068;2022-12-07T13:57:16;4.50;99.90
11617;DHT22;5864;52.998;9.068;2022-12-07T13:59:44;4.50;99.90
11617;DHT22;5864;52.998;9.068;2022-12-07T14:02:19;4.50;99.90
11617;DHT22;5864;52.998;9.068;2022-12-07T14:04:49;4.50;99.90
11617;DHT22;5864;52.998;9.068;2022-12-07T14:07:22;4.50;99.90
11617;DHT22;5864;52.998;9.068;2022-12-07T14:09:55;4.60;99.90
11617;DHT22;5864;52.998;9.068;2022-12-07T14:12:23;4.50;99.90
11617;DHT22;5864;52.998;9.068;2022-12-07T14:14:51;4.50;99.90
11617;DHT22;5864;52.998;9.068;2022-12-07T14:17:20;4.50;99.90
11617;DHT22;5864;52.998;9.068;2022-12-07T14:19:50;4.50;99.90
11617;DHT22;5864;52.998;9.068;2022-12-07T14:22:24;4.50;99.90
11617;DHT22;5864;52.998;9.068;2022-12-07T14:24:59;4.50;99.90
11617;DHT22;5864;52.998;9.068;2022-12-07T14:27:32;4.40;99.90
11617;DHT22;5864;52.998;9.068;2022-12-07T14:30:01;4.40;99.90
11617;DHT22;5864;52.998;9.068;2022-12-07T14:32:29;4.40;99.90
11617;DHT22;5864;52.998;9.068;2022-12-07T14:34:59;4.40;99.90
11617;DHT22;5864;52.998;9.068;2022-12-07T14:37:29;4.40;99.90
11617;DHT22;5864;52.998;9.068;2022-12-07T14:39:57;4.40;99.90
11617;DHT22;5864;52.998;9.068;2022-12-07T14:42:27;4.40;99.90
11617;DHT22;5864;52.998;9.068;2022-12-07T14:44:56;4.40;99.90
11617;DHT22;5864;52.998;9.068;2022-12-07T14:47:24;4.30;99.90
11617;DHT22;5864;52.998;9.068;2022-12-07T14:49:52;4.30;99.90
11617;DHT22;5864;52.998;9.068;2022-12-07T14:52:22;4.30;99.90
11617;DHT22;5864;52.998;9.068;2022-12-07T14:54:51;4.30;99.90
11617;DHT22;5864;52.998;9.068;2022-12-07T14:57:19;4.20;99.90
11617;DHT22;5864;52.998;9.068;2022-12-07T14:59:46;5.70;99.90
11617;DHT22;5864;52.998;9.068;2022-12-07T15:02:14;4.10;99.90
11617;DHT22;5864;52.998;9.068;2022-12-07T15:04:42;4.10;99.90
11617;DHT22;5864;52.998;9.068;2022-12-07T15:07:14;4.00;99.90
11617;DHT22;5864;52.998;9.068;2022-12-07T15:09:43;4.00;99.90
11617;DHT22;5864;52.998;9.068;2022-12-07T15:12:12;3.90;99.90
11617;DHT22;5864;52.998;9.068;2022-12-07T15:14:39;3.90;99.90
11617;DHT22;5864;52.998;9.068;2022-12-07T15:17:10;3.90;99.90
11617;DHT22;5864;52.998;9.068;2022-12-07T15:19:37;3.80;99.90
11617;DHT22;5864;52.998;9.068;2022-12-07T15:22:05;3.90;99.90
11617;DHT22;5864;52.998;9.068;2022-12-07T15:24:33;3.80;99.90
11617;DHT22;5864;52.998;9.068;2022-12-07T15:27:01;3.90;99.90
11617;DHT22;5864;52.998;9.068;2022-12-07T15:29:30;3.80;99.90
11617;DHT22;5864;52.998;9.068;2022-12-07T15:31:57;3.80;99.90
11617;DHT22;5864;52.998;9.068;2022-12-07T15:34:25;3.90;99.90
11617;DHT22;5864;52.998;9.068;2022-12-07T15:36:54;3.90;99.90
11617;DHT22;5864;52.998;9.068;2022-12-07T15:39:22;3.80;99.90
11617;DHT22;5864;52.998;9.068;2022-12-07T15:41:49;3.90;99.90
11617;DHT22;5864;52.998;9.068;2022-12-07T15:44:17;3.90;99.90
11617;DHT22;5864;52.998;9.068;2022-12-07T15:47:04;3.90;99.90
11617;DHT22;5864;52.998;9.068;2022-12-07T15:49:31;3.90;99.90
11617;DHT22;5864;52.998;9.068;2022-12-07T15:51:59;3.90;99.90
11617;DHT22;5864;52.998;9.068;2022-12-07T15:54:28;3.80;99.90
11617;DHT22;5864;52.998;9.068;2022-12-07T15:56:56;3.80;99.90
11617;DHT22;5864;52.998;9.068;2022-12-07T15:59:25;3.80;99.90
11617;DHT22;5864;52.998;9.068;2022-12-07T16:01:52;3.80;99.90
11617;DHT22;5864;52.998;9.068;2022-12-07T16:04:21;3.70;99.90
11617;DHT22;5864;52.998;9.068;2022-12-07T16:06:49;3.70;99.90
11617;DHT22;5864;52.998;9.068;2022-12-07T16:09:17;3.60;99.90
11617;DHT22;5864;52.998;9.068;2022-12-07T16:11:44;3.60;99.90
11617;DHT22;5864;52.998;9.068;2022-12-07T16:14:12;3.60;99.90
11617;DHT22;5864;52.998;9.068;2022-12-07T16:16:39;3.60;99.90
11617;DHT22;5864;52.998;9.068;2022-12-07T16:19:08;3.60;99.90
11617;DHT22;5864;52.998;9.068;2022-12-07T16:21:37;3.60;99.90
11617;DHT22;5864;52.998;9.068;2022-12-07T16:24:05;3.60;99.90
11617;DHT22;5864;52.998;9.068;2022-12-07T16:26:33;3.60;99.90
11617;DHT22;5864;52.998;9.068;2022-12-07T16:29:00;3.50;99.90
11617;DHT22;5864;52.998;9.068;2022-12-07T16:31:28;3.50;99.90
11617;DHT22;5864;52.998;9.068;2022-12-07T16:33:59;3.50;99.90
11617;DHT22;5864;52.998;9.068;2022-12-07T16:36:26;3.40;99.90
11617;DHT22;5864;52.998;9.068;2022-12-07T16:38:55;3.40;99.90
11617;DHT22;5864;52.998;9.068;2022-12-07T16:41:25;3.40;99.90
11617;DHT22;5864;52.998;9.068;2022-12-07T16:43:52;3.40;99.90
11617;DHT22;5864;52.998;9.068;2022-12-07T16:46:19;3.30;99.90
11617;DHT22;5864;52.998;9.068;2022-12-07T16:48:47;3.30;99.90
11617;DHT22;5864;52.998;9.068;2022-12-07T16:51:15;3.30;99.90
11617;DHT22;5864;52.998;9.068;2022-12-07T16:53:42;3.40;99.90
11617;DHT22;5864;52.998;9.068;2022-12-07T16:56:12;3.40;99.90
11617;DHT22;5864;52.998;9.068;2022-12-07T16:58:40;3.40;99.90
11617;DHT22;5864;52.998;9.068;2022-12-07T17:01:11;3.40;99.90
11617;DHT22;5864;52.998;9.068;2022-12-07T17:03:39;3.40;99.90
11617;DHT22;5864;52.998;9.068;2022-12-07T17:06:12;3.50;99.90
11617;DHT22;5864;52.998;9.068;2022-12-07T17:08:41;3.50;99.90
11617;DHT22;5864;52.998;9.068;2022-12-07T17:11:15;3.50;99.90
11617;DHT22;5864;52.998;9.068;2022-12-07T17:13:44;3.50;99.90
11617;DHT22;5864;52.998;9.068;2022-12-07T17:16:29;3.50;99.90
11617;DHT22;5864;52.998;9.068;2022-12-07T17:18:56;3.50;99.90
11617;DHT22;5864;52.998;9.068;2022-12-07T17:21:24;3.50;99.90
11617;DHT22;5864;52.998;9.068;2022-12-07T17:23:52;3.60;99.90
11617;DHT22;5864;52.998;9.068;2022-12-07T17:26:22;3.60;99.90
11617;DHT22;5864;52.998;9.068;2022-12-07T17:28:50;3.50;99.90
11617;DHT22;5864;52.998;9.068;2022-12-07T17:31:20;3.50;99.90
11617;DHT22;5864;52.998;9.068;2022-12-07T17:33:47;3.40;99.90
11617;DHT22;5864;52.998;9.068;2022-12-07T17:36:16;3.30;99.90
11617;DHT22;5864;52.998;9.068;2022-12-07T17:38:44;3.20;99.90